Time;durP1;ratioP1;P1;durP2;ratioP2;P2;SDS_P1;SDS_P2;PMS_P1;PMS_P2;Temp;Humidity;BMP_temperature;BMP_pressure;BME280_temperature;BME280_humidity;BME280_pressure;Samples;Min_cycle;Max_cycle;Signal;HPM_P1;HPM_P2
2022/10/11 00:02:03;;;;;;;11.88;3.47;;;10.20;99.90;;;;;;5092083;28;20057;-47
2022/10/11 00:04:28;;;;;;;23.67;4.20;;;10.20;99.90;;;;;;5091588;28;20039;-48
2022/10/11 00:06:55;;;;;;;22.20;4.75;;;10.10;99.90;;;;;;5092062;28;20032;-52
2022/10/11 00:09:20;;;;;;;17.73;4.32;;;10.10;99.90;;;;;;5091954;28;20035;-50
2022/10/11 00:11:46;;;;;;;21.42;4.20;;;10.10;99.90;;;;;;5085296;28;20037;-47
2022/10/11 00:14:11;;;;;;;13.85;3.63;;;10.10;99.90;;;;;;5071134;28;20028;-48
2022/10/11 00:16:39;;;;;;;18.63;3.30;;;10.00;99.90;;;;;;5071589;28;20025;-47
2022/10/11 00:19:05;;;;;;;20.88;4.25;;;10.10;99.90;;;;;;5071550;28;20027;-49
2022/10/11 00:21:30;;;;;;;22.65;4.13;;;10.00;99.90;;;;;;5071517;28;20029;-46
2022/10/11 00:23:56;;;;;;;14.57;3.33;;;10.00;99.90;;;;;;5071022;28;20032;-46
2022/10/11 00:26:21;;;;;;;25.20;4.15;;;10.00;99.90;;;;;;5071582;28;20189;-46
2022/10/11 00:28:50;;;;;;;18.10;3.72;;;10.00;99.90;;;;;;5075962;28;20115;-48
2022/10/11 00:31:15;;;;;;;23.73;4.93;;;9.90;99.90;;;;;;5090130;28;20534;-48
2022/10/11 00:33:41;;;;;;;16.73;3.60;;;9.90;99.90;;;;;;5080867;28;20028;-48
2022/10/11 00:36:07;;;;;;;17.38;3.92;;;9.90;99.90;;;;;;5071894;28;20036;-51
2022/10/11 00:38:33;;;;;;;22.85;4.10;;;9.90;99.90;;;;;;5060010;28;20572;-49
2022/10/11 00:40:59;;;;;;;19.33;3.95;;;9.90;99.90;;;;;;5061694;28;20112;-50
2022/10/11 00:43:28;;;;;;;24.60;4.55;;;9.80;99.90;;;;;;5063550;28;20020;-51
2022/10/11 00:45:56;;;;;;;17.00;5.72;;;9.80;99.90;;;;;;5064990;28;20059;-48
2022/10/11 00:48:43;;;;;;;16.52;4.22;;;9.80;99.90;;;;;;5060365;28;20489;-50
2022/10/11 00:51:36;;;;;;;22.00;3.78;;;9.80;99.90;;;;;;5061324;28;20033;-50
2022/10/11 00:54:02;;;;;;;16.48;3.75;;;9.70;99.90;;;;;;5059998;28;20021;-52
2022/10/11 00:56:37;;;;;;;18.58;3.40;;;9.70;99.90;;;;;;5059612;28;20091;-51
2022/10/11 00:59:09;;;;;;;13.85;4.13;;;9.70;99.90;;;;;;5064789;28;20037;-49
2022/10/11 01:01:35;;;;;;;26.42;5.05;;;9.70;99.90;;;;;;5059324;28;20024;-51
2022/10/11 01:04:01;;;;;;;18.90;3.58;;;9.70;99.90;;;;;;5059905;28;20024;-48
2022/10/11 01:06:27;;;;;;;15.57;3.67;;;9.70;99.90;;;;;;5061228;28;20036;-50
2022/10/11 01:08:52;;;;;;;12.15;3.53;;;9.60;99.90;;;;;;5059132;28;20106;-51
2022/10/11 01:11:21;;;;;;;15.93;3.42;;;9.70;99.90;;;;;;5063303;28;20056;-50
2022/10/11 01:14:23;;;;;;;14.73;3.47;;;9.60;99.90;;;;;;5062473;28;20061;-51
2022/10/11 01:17:00;;;;;;;16.50;4.00;;;9.60;99.90;;;;;;5075674;28;20471;-52
2022/10/11 01:20:04;;;;;;;18.83;4.25;;;9.60;99.90;;;;;;5091049;28;20031;-49
2022/10/11 01:22:38;;;;;;;24.02;4.50;;;9.50;99.90;;;;;;5090923;28;20024;-47
2022/10/11 01:25:16;;;;;;;15.80;5.53;;;9.40;99.90;;;;;;5090956;28;20050;-47
2022/10/11 01:28:05;;;;;;;21.30;3.92;;;9.40;99.90;;;;;;5090910;28;20066;-50
2022/10/11 01:30:35;;;;;;;18.73;3.47;;;9.40;99.90;;;;;;5091061;28;20126;-48
2022/10/11 01:33:38;;;;;;;25.50;4.45;;;9.40;99.90;;;;;;5089998;28;20070;-48
2022/10/11 01:36:15;;;;;;;18.35;4.03;;;9.40;99.90;;;;;;5078777;28;20038;-47
2022/10/11 01:38:48;;;;;;;22.52;5.20;;;9.40;99.90;;;;;;5090560;28;20469;-50
2022/10/11 01:41:30;;;;;;;17.63;4.22;;;9.40;99.90;;;;;;5090613;28;20028;-51
2022/10/11 01:43:59;;;;;;;23.60;4.57;;;9.40;99.90;;;;;;5090076;28;20392;-48
2022/10/11 01:46:27;;;;;;;18.23;4.43;;;9.30;99.90;;;;;;5064998;28;20021;-51
2022/10/11 01:48:55;;;;;;;21.45;4.38;;;9.40;99.90;;;;;;5055688;28;20052;-48
2022/10/11 01:51:24;;;;;;;16.98;4.55;;;9.30;99.90;;;;;;5053598;28;20477;-50
2022/10/11 01:54:07;;;;;;;22.67;4.70;;;9.30;99.90;;;;;;5062997;28;20025;-51
2022/10/11 01:56:48;;;;;;;24.52;4.30;;;9.20;99.90;;;;;;5058172;28;20020;-49
2022/10/11 01:59:31;;;;;;;22.98;4.65;;;9.20;99.90;;;;;;5069611;28;20028;-48
2022/10/11 02:02:35;;;;;;;21.92;3.88;;;9.20;99.90;;;;;;5069607;28;20472;-48
2022/10/11 02:05:27;;;;;;;12.82;3.72;;;9.20;99.90;;;;;;5054816;28;20047;-47
2022/10/11 02:08:05;;;;;;;13.63;4.55;;;9.10;99.90;;;;;;5085414;28;20027;-50
2022/10/11 02:10:48;;;;;;;13.90;3.08;;;9.20;99.90;;;;;;5089637;28;20465;-47
2022/10/11 02:13:21;;;;;;;15.88;4.93;;;9.20;99.90;;;;;;5088022;28;20032;-47
2022/10/11 02:15:49;;;;;;;17.15;3.30;;;9.10;99.90;;;;;;5089785;28;20035;-47
2022/10/11 02:18:19;;;;;;;19.50;3.78;;;9.10;99.90;;;;;;5089753;28;20053;-49
2022/10/11 02:20:47;;;;;;;21.50;3.92;;;9.10;99.90;;;;;;5089369;28;20039;-47
2022/10/11 02:23:17;;;;;;;24.13;4.85;;;9.10;99.90;;;;;;5089315;28;20036;-47
2022/10/11 02:25:44;;;;;;;12.68;3.08;;;9.00;99.90;;;;;;5089871;28;20620;-47
2022/10/11 02:28:19;;;;;;;23.70;3.75;;;9.10;99.90;;;;;;5089580;28;20024;-48
2022/10/11 02:30:48;;;;;;;13.95;3.67;;;9.00;99.90;;;;;;5089556;28;20032;-48
2022/10/11 02:33:20;;;;;;;13.98;3.28;;;9.10;99.90;;;;;;5088994;28;20508;-49
2022/10/11 02:35:52;;;;;;;21.50;3.53;;;9.00;99.90;;;;;;5081006;28;20043;-48
2022/10/11 02:38:24;;;;;;;13.85;3.55;;;9.00;99.90;;;;;;5088623;28;20451;-47
2022/10/11 02:41:18;;;;;;;15.20;4.22;;;8.90;99.90;;;;;;5089645;28;20024;-47
2022/10/11 02:43:59;;;;;;;13.23;3.63;;;8.90;99.90;;;;;;5084939;28;20051;-50
2022/10/11 02:46:25;;;;;;;;;;;8.90;99.90;;;;;;5090023;28;20569;-48
2022/10/11 02:48:51;;;;;;;19.60;3.50;;;8.90;99.90;;;;;;5089509;28;20285;-50
2022/10/11 02:51:17;;;;;;;22.70;4.53;;;8.90;99.90;;;;;;5088237;28;20117;-47
2022/10/11 02:53:42;;;;;;;13.95;3.40;;;8.90;99.90;;;;;;5088946;28;20032;-51
2022/10/11 02:56:08;;;;;;;19.23;4.32;;;8.90;99.90;;;;;;5089309;28;20024;-49
2022/10/11 02:58:34;;;;;;;17.30;3.53;;;8.90;99.90;;;;;;5088118;28;20083;-51
2022/10/11 03:00:59;;;;;;;20.83;3.72;;;8.90;99.90;;;;;;5076621;28;20028;-49
2022/10/11 03:03:25;;;;;;;16.02;4.15;;;8.80;99.90;;;;;;5080683;28;20035;-47
2022/10/11 03:05:56;;;;;;;21.27;3.95;;;8.80;99.90;;;;;;5088061;28;20111;-49
2022/10/11 03:08:21;;;;;;;20.30;4.10;;;8.80;99.90;;;;;;5089078;28;20035;-51
2022/10/11 03:10:47;;;;;;;21.50;3.80;;;8.70;99.90;;;;;;5089247;28;20031;-48
2022/10/11 03:13:12;;;;;;;17.40;3.97;;;8.70;99.90;;;;;;5090240;28;20447;-48
2022/10/11 03:15:38;;;;;;;15.90;4.40;;;8.70;99.90;;;;;;5090596;28;20020;-48
2022/10/11 03:18:03;;;;;;;16.85;3.90;;;8.70;99.90;;;;;;5077342;28;20452;-48
2022/10/11 03:20:29;;;;;;;21.80;4.60;;;8.70;99.90;;;;;;5093025;28;20032;-48
2022/10/11 03:22:54;;;;;;;21.77;4.28;;;8.60;99.90;;;;;;5092655;28;20029;-48
2022/10/11 03:25:20;;;;;;;18.45;3.15;;;8.60;99.90;;;;;;5093114;28;20460;-51
2022/10/11 03:27:45;;;;;;;17.17;3.42;;;8.60;99.90;;;;;;5093049;28;20024;-49
2022/10/11 03:30:12;;;;;;;23.48;4.60;;;8.60;99.90;;;;;;5093039;28;20537;-49
2022/10/11 03:32:37;;;;;;;17.70;3.33;;;8.60;99.90;;;;;;5092199;28;20085;-47
2022/10/11 03:35:03;;;;;;;23.63;4.15;;;8.60;99.90;;;;;;5077113;28;20037;-49
2022/10/11 03:37:29;;;;;;;22.05;4.35;;;8.50;99.90;;;;;;5083270;28;20020;-48
2022/10/11 03:39:54;;;;;;;19.70;3.40;;;8.50;99.90;;;;;;5091293;28;20016;-47
2022/10/11 03:42:20;;;;;;;22.40;3.80;;;8.50;99.90;;;;;;5091030;28;20232;-47
2022/10/11 03:44:48;;;;;;;14.73;3.65;;;8.50;99.90;;;;;;5090957;28;20032;-48
2022/10/11 03:47:13;;;;;;;27.77;5.10;;;8.50;99.90;;;;;;5091112;28;20143;-48
2022/10/11 03:49:39;;;;;;;21.50;4.78;;;8.50;99.90;;;;;;5079325;28;20016;-48
2022/10/11 03:52:04;;;;;;;17.30;3.53;;;8.40;99.90;;;;;;5089022;28;20111;-50
2022/10/11 03:54:30;;;;;;;10.23;2.65;;;8.40;99.90;;;;;;5091941;28;20362;-48
2022/10/11 03:56:57;;;;;;;21.25;4.40;;;8.40;99.90;;;;;;5092587;28;20024;-50
2022/10/11 03:59:22;;;;;;;15.75;3.40;;;8.40;99.90;;;;;;5093007;28;20024;-52
2022/10/11 04:01:48;;;;;;;14.80;4.32;;;8.40;99.90;;;;;;5091119;28;20020;-49
2022/10/11 04:04:13;;;;;;;15.55;3.35;;;8.40;99.90;;;;;;5086247;28;20075;-49
2022/10/11 04:06:39;;;;;;;28.30;5.10;;;8.40;99.90;;;;;;5083350;28;20475;-48
2022/10/11 04:09:04;;;;;;;15.32;3.38;;;8.40;99.90;;;;;;5092076;28;20032;-48
2022/10/11 04:11:30;;;;;;;15.98;3.75;;;8.50;99.90;;;;;;5092253;28;20430;-49
2022/10/11 04:13:55;;;;;;;26.33;4.13;;;8.40;99.90;;;;;;5091594;28;20050;-51
2022/10/11 04:16:21;;;;;;;20.98;4.03;;;8.40;99.90;;;;;;5092458;28;20427;-52
2022/10/11 04:18:46;;;;;;;15.05;4.10;;;8.50;99.90;;;;;;5092438;28;20390;-49
2022/10/11 04:21:12;;;;;;;23.73;4.18;;;8.40;99.90;;;;;;5091850;28;20020;-49
2022/10/11 04:23:37;;;;;;;15.00;3.55;;;8.40;99.90;;;;;;5091165;28;20024;-50
2022/10/11 04:26:05;;;;;;;20.20;4.35;;;8.50;99.90;;;;;;5084858;28;20649;-52
2022/10/11 04:28:31;;;;;;;18.70;3.40;;;8.50;99.90;;;;;;5061195;28;20424;-52
2022/10/11 04:30:56;;;;;;;17.70;4.43;;;8.50;99.90;;;;;;5060421;28;20029;-49
2022/10/11 04:33:22;;;;;;;20.70;3.85;;;8.50;99.90;;;;;;5059439;28;20021;-52
2022/10/11 04:35:47;;;;;;;23.02;3.92;;;8.40;99.90;;;;;;5066266;28;20473;-49
2022/10/11 04:38:13;;;;;;;16.40;3.95;;;8.50;99.90;;;;;;5068856;28;20048;-49
2022/10/11 04:40:38;;;;;;;24.20;3.65;;;8.40;99.90;;;;;;5062253;28;20367;-48
2022/10/11 04:43:03;;;;;;;16.35;4.13;;;8.40;99.90;;;;;;5075072;28;20024;-48
2022/10/11 04:45:29;;;;;;;21.25;4.50;;;8.40;99.90;;;;;;5070936;28;20527;-48
2022/10/11 04:47:55;;;;;;;18.73;4.90;;;8.40;99.90;;;;;;5070996;28;20032;-51
2022/10/11 04:50:20;;;;;;;13.75;4.47;;;8.40;99.90;;;;;;5070906;28;20107;-49
2022/10/11 04:52:46;;;;;;;19.23;4.20;;;8.40;99.90;;;;;;5065075;28;20236;-50
2022/10/11 04:55:11;;;;;;;18.70;4.20;;;8.40;99.90;;;;;;5078757;28;20381;-52
2022/10/11 04:57:37;;;;;;;22.05;4.63;;;8.30;99.90;;;;;;5091022;28;20028;-40
2022/10/11 05:00:04;;;;;;;17.02;4.78;;;8.40;99.90;;;;;;5091050;28;20139;-43
2022/10/11 05:02:29;;;;;;;20.85;5.15;;;8.30;99.90;;;;;;5085030;28;20017;-40
2022/10/11 05:04:55;;;;;;;26.30;5.00;;;8.30;99.90;;;;;;5070561;28;20032;-47
2022/10/11 05:07:20;;;;;;;15.95;4.20;;;8.30;99.90;;;;;;5070538;28;20028;-48
2022/10/11 05:09:46;;;;;;;23.70;5.20;;;8.20;99.90;;;;;;5070496;28;20028;-48
2022/10/11 05:12:11;;;;;;;16.15;4.20;;;8.20;99.90;;;;;;5070230;28;20043;-51
2022/10/11 05:14:37;;;;;;;22.30;4.60;;;8.20;99.90;;;;;;5069687;28;20664;-48
2022/10/11 05:17:03;;;;;;;18.50;5.28;;;8.20;99.90;;;;;;5070413;28;20052;-49
2022/10/11 05:19:28;;;;;;;24.00;6.10;;;8.20;99.90;;;;;;5070362;28;20024;-50
2022/10/11 05:21:54;;;;;;;15.80;4.80;;;8.20;99.90;;;;;;5057426;28;20041;-49
2022/10/11 05:24:19;;;;;;;16.95;5.30;;;8.20;99.90;;;;;;5066921;28;20433;-49
2022/10/11 05:26:45;;;;;;;23.70;5.78;;;8.20;99.90;;;;;;5085240;28;20027;-50
2022/10/11 05:29:10;;;;;;;24.05;6.85;;;8.20;99.90;;;;;;5089976;28;20036;-47
2022/10/11 05:31:36;;;;;;;20.48;6.78;;;8.20;99.90;;;;;;5090525;28;20020;-48
2022/10/11 05:34:01;;;;;;;24.88;5.88;;;8.20;99.90;;;;;;5089698;28;20028;-50
2022/10/11 05:36:27;;;;;;;19.23;6.45;;;8.20;99.90;;;;;;5077090;28;20103;-48
2022/10/11 05:38:52;;;;;;;18.55;6.15;;;8.20;99.90;;;;;;5085803;28;20023;-49
2022/10/11 05:41:18;;;;;;;19.25;6.50;;;8.20;99.90;;;;;;5090075;28;20028;-48
2022/10/11 05:43:44;;;;;;;25.27;6.72;;;8.20;99.90;;;;;;5089654;28;20051;-50
2022/10/11 05:46:10;;;;;;;22.63;6.68;;;8.20;99.90;;;;;;5089896;28;20091;-48
2022/10/11 05:48:36;;;;;;;23.60;7.05;;;8.10;99.90;;;;;;5090107;28;20549;-48
2022/10/11 05:51:04;;;;;;;19.15;6.47;;;8.20;99.90;;;;;;5089729;28;20078;-49
2022/10/11 05:53:30;;;;;;;13.07;5.80;;;8.10;99.90;;;;;;5089577;28;20424;-48
2022/10/11 05:55:56;;;;;;;19.50;6.13;;;8.20;99.90;;;;;;5088684;28;20034;-49
2022/10/11 05:58:22;;;;;;;23.05;5.82;;;8.20;99.90;;;;;;5081331;28;20043;-47
2022/10/11 06:00:47;;;;;;;27.88;6.90;;;8.20;99.90;;;;;;5084659;28;20028;-49
2022/10/11 06:03:13;;;;;;;18.83;5.85;;;8.20;99.90;;;;;;5089367;28;20024;-51
2022/10/11 06:05:39;;;;;;;20.35;6.13;;;8.20;99.90;;;;;;5088669;28;20524;-51
2022/10/11 06:08:06;;;;;;;24.02;7.22;;;8.20;99.90;;;;;;5089797;28;20028;-48
2022/10/11 06:10:31;;;;;;;20.23;5.68;;;8.20;99.90;;;;;;5089597;28;20020;-49
2022/10/11 06:12:57;;;;;;;22.95;5.97;;;8.20;99.90;;;;;;5077355;28;20043;-47
2022/10/11 06:15:23;;;;;;;20.00;5.88;;;8.20;99.90;;;;;;5081114;28;20115;-47
2022/10/11 06:17:48;;;;;;;27.67;6.07;;;8.20;99.90;;;;;;5089581;28;20103;-48
2022/10/11 06:20:14;;;;;;;17.33;5.65;;;8.20;99.90;;;;;;5089608;28;20028;-48
2022/10/11 06:22:39;;;;;;;26.95;6.45;;;8.20;99.90;;;;;;5089228;28;20020;-47
2022/10/11 06:25:06;;;;;;;26.92;7.47;;;8.30;99.90;;;;;;5089892;28;20048;-48
2022/10/11 06:27:31;;;;;;;23.08;6.70;;;8.30;99.90;;;;;;5089580;28;20020;-48
2022/10/11 06:29:57;;;;;;;26.45;6.13;;;8.30;99.90;;;;;;5089588;28;20103;-46
2022/10/11 06:32:22;;;;;;;27.35;6.70;;;8.30;99.90;;;;;;5089024;28;20030;-48
2022/10/11 06:34:48;;;;;;;16.08;5.50;;;8.30;99.90;;;;;;5086187;28;20159;-47
2022/10/11 06:37:13;;;;;;;27.58;6.68;;;8.40;99.90;;;;;;5077762;28;20375;-47
2022/10/11 06:39:39;;;;;;;21.92;5.95;;;8.40;99.90;;;;;;5089620;28;20376;-47
2022/10/11 06:42:05;;;;;;;19.80;5.65;;;8.40;99.90;;;;;;5089743;28;20100;-47
2022/10/11 06:44:30;;;;;;;19.77;5.53;;;8.50;99.90;;;;;;5089232;28;20067;-47
2022/10/11 06:46:56;;;;;;;24.58;5.68;;;8.50;99.90;;;;;;5092031;28;20020;-48
2022/10/11 06:49:21;;;;;;;22.90;5.10;;;8.60;99.90;;;;;;5093704;28;20024;-47
2022/10/11 06:51:47;;;;;;;24.17;5.13;;;8.60;99.90;;;;;;5093399;28;20044;-51
2022/10/11 06:54:12;;;;;;;20.23;6.20;;;8.60;99.90;;;;;;5093029;28;20032;-49
2022/10/11 06:56:39;;;;;;;25.33;6.07;;;8.60;99.90;;;;;;5093491;28;20106;-47
2022/10/11 06:59:05;;;;;;;20.30;5.40;;;8.60;99.90;;;;;;5093409;28;20023;-48
2022/10/11 07:01:31;;;;;;;24.58;6.93;;;8.60;99.90;;;;;;5093351;28;20392;-47
2022/10/11 07:03:59;;;;;;;21.40;5.55;;;8.70;99.90;;;;;;5092982;28;20500;-48
2022/10/11 07:06:27;;;;;;;26.20;5.60;;;8.70;99.90;;;;;;5084316;28;20021;-48
2022/10/11 07:08:53;;;;;;;37.63;7.70;;;8.70;99.90;;;;;;5088600;28;20492;-49
2022/10/11 07:11:24;;;;;;;19.17;5.10;;;8.80;99.90;;;;;;5093066;28;20028;-47
2022/10/11 07:13:51;;;;;;;20.13;5.70;;;8.80;99.90;;;;;;5092332;28;20032;-46
2022/10/11 07:16:18;;;;;;;17.42;5.43;;;8.80;99.90;;;;;;5093097;28;20020;-47
2022/10/11 07:18:44;;;;;;;18.45;5.20;;;8.90;99.90;;;;;;5084174;28;20024;-47
2022/10/11 07:21:13;;;;;;;19.73;5.53;;;9.00;99.90;;;;;;5072582;28;20469;-48
2022/10/11 07:23:39;;;;;;;20.63;5.53;;;9.00;99.90;;;;;;5072442;28;20094;-48
2022/10/11 07:26:05;;;;;;;20.92;5.55;;;9.10;99.90;;;;;;5072482;28;20485;-50
2022/10/11 07:28:32;;;;;;;17.50;4.65;;;9.20;99.90;;;;;;5072521;28;20470;-47
2022/10/11 07:30:58;;;;;;;27.55;6.05;;;9.30;99.90;;;;;;5072299;28;20098;-46
2022/10/11 07:33:24;;;;;;;25.48;5.88;;;9.30;99.90;;;;;;5071961;28;20111;-46
2022/10/11 07:35:49;;;;;;;18.92;5.40;;;9.40;99.90;;;;;;5076223;28;20119;-46
2022/10/11 07:38:15;;;;;;;29.17;5.25;;;9.40;99.90;;;;;;5080428;28;20032;-47
2022/10/11 07:40:43;;;;;;;23.65;5.18;;;9.50;99.90;;;;;;5072221;28;20020;-46
2022/10/11 07:43:09;;;;;;;18.27;4.65;;;9.50;99.90;;;;;;5072005;28;20024;-51
2022/10/11 07:45:39;;;;;;;28.80;5.63;;;9.50;99.90;;;;;;5072405;28;20111;-49
2022/10/11 07:48:05;;;;;;;22.55;5.72;;;9.60;99.90;;;;;;5073838;28;20013;-47
2022/10/11 07:50:30;;;;;;;19.10;5.43;;;9.70;99.90;;;;;;5068547;28;20027;-47
2022/10/11 07:52:56;;;;;;;21.52;5.30;;;9.70;99.90;;;;;;5082351;28;20081;-47
2022/10/11 07:55:22;;;;;;;16.35;4.85;;;9.80;99.90;;;;;;5091999;28;20032;-50
2022/10/11 07:57:47;;;;;;;27.38;5.20;;;9.80;99.90;;;;;;5091455;28;20032;-49
2022/10/11 08:00:13;;;;;;;18.40;5.32;;;9.90;99.90;;;;;;5081278;28;20016;-50
2022/10/11 08:02:38;;;;;;;18.60;4.75;;;10.00;99.90;;;;;;5057462;28;20483;-49
2022/10/11 08:05:04;;;;;;;22.50;4.95;;;10.10;99.90;;;;;;5052068;28;20514;-48
2022/10/11 08:07:30;;;;;;;22.35;5.70;;;10.20;99.90;;;;;;5049779;28;20025;-51
2022/10/11 08:09:55;;;;;;;16.25;4.72;;;10.20;99.90;;;;;;5051041;28;20041;-51
2022/10/11 08:12:21;;;;;;;24.30;4.95;;;10.30;99.90;;;;;;5061269;28;20049;-47
2022/10/11 08:14:46;;;;;;;30.45;5.60;;;10.40;99.90;;;;;;5058205;28;20025;-47
2022/10/11 08:17:13;;;;;;;15.70;4.78;;;10.50;99.90;;;;;;5066218;28;20029;-50
2022/10/11 08:19:38;;;;;;;15.93;4.32;;;10.50;99.90;;;;;;5065593;28;20079;-47
2022/10/11 08:22:04;;;;;;;21.20;4.80;;;10.60;99.90;;;;;;5076442;28;20412;-47
2022/10/11 08:24:29;;;;;;;20.15;6.32;;;10.80;99.90;;;;;;5090958;28;20032;-47
2022/10/11 08:26:55;;;;;;;16.27;4.38;;;10.90;99.90;;;;;;5090923;28;20023;-49
2022/10/11 08:29:20;;;;;;;24.80;4.22;;;11.10;99.90;;;;;;5090821;28;20021;-47
2022/10/11 08:31:46;;;;;;;18.27;4.45;;;11.20;99.90;;;;;;5090932;28;20389;-46
2022/10/11 08:34:12;;;;;;;18.27;4.85;;;11.20;99.90;;;;;;5088786;28;20119;-47
2022/10/11 08:36:38;;;;;;;17.05;5.15;;;11.40;99.90;;;;;;5076057;28;20032;-48
2022/10/11 08:39:05;;;;;;;24.58;5.28;;;11.50;99.90;;;;;;5080891;28;20043;-47
2022/10/11 08:41:49;;;;;;;13.98;3.70;;;11.70;99.90;;;;;;5086771;28;20020;-47
2022/10/11 08:44:49;;;;;;;13.32;4.07;;;11.90;99.90;;;;;;5080368;28;20465;-47
2022/10/11 08:47:22;;;;;;;15.63;4.32;;;12.40;99.90;;;;;;5090687;28;20055;-48
2022/10/11 08:49:49;;;;;;;9.48;3.08;;;13.80;99.90;;;;;;5091055;28;20024;-48
2022/10/11 08:52:21;;;;;;;11.45;3.47;;;15.30;99.90;;;;;;5090337;28;20063;-47
2022/10/11 08:54:56;;;;;;;10.70;3.10;;;17.00;99.90;;;;;;5090735;28;20032;-49
2022/10/11 08:57:26;;;;;;;9.70;3.38;;;18.70;99.90;;;;;;5088668;28;20012;-47
2022/10/11 08:59:57;;;;;;;14.80;3.40;;;20.10;96.60;;;;;;5082499;28;20380;-50
2022/10/11 09:02:41;;;;;;;8.75;2.95;;;21.00;93.00;;;;;;5090383;28;20024;-51
2022/10/11 09:05:13;;;;;;;13.05;4.10;;;22.00;90.90;;;;;;5065140;28;20083;-49
2022/10/11 09:08:05;;;;;;;7.47;3.40;;;22.90;83.70;;;;;;5050985;28;20389;-51
2022/10/11 09:10:49;;;;;;;9.43;3.22;;;23.40;79.50;;;;;;5050658;28;20021;-48
2022/10/11 09:13:48;;;;;;;14.25;3.58;;;23.80;78.60;;;;;;5049799;28;20025;-48
2022/10/11 09:16:22;;;;;;;9.38;3.47;;;24.30;74.40;;;;;;5050842;28;20025;-49
2022/10/11 09:19:25;;;;;;;12.23;3.63;;;24.10;74.00;;;;;;5051074;28;20405;-49
2022/10/11 09:22:04;;;;;;;7.82;2.80;;;24.40;72.10;;;;;;5050361;28;20029;-48
2022/10/11 09:24:44;;;;;;;8.30;2.88;;;24.80;69.80;;;;;;5050094;28;20074;-48
2022/10/11 09:27:19;;;;;;;7.20;2.90;;;25.50;69.80;;;;;;5053244;28;20017;-48
2022/10/11 09:30:13;;;;;;;7.82;2.60;;;24.90;67.30;;;;;;5082183;28;20024;-48
2022/10/11 09:32:42;;;;;;;9.88;3.15;;;25.40;66.70;;;;;;5090175;28;20078;-48
2022/10/11 09:35:17;;;;;;;10.40;2.92;;;25.50;67.00;;;;;;5090256;28;20557;-48
2022/10/11 09:38:01;;;;;;;9.10;3.03;;;26.20;63.40;;;;;;5072551;28;20024;-49
2022/10/11 09:40:41;;;;;;;8.00;3.28;;;26.40;65.10;;;;;;5050207;28;20044;-49
2022/10/11 09:43:08;;;;;;;9.95;2.83;;;27.10;64.70;;;;;;5049874;28;20526;-48
2022/10/11 09:45:34;;;;;;;7.63;2.88;;;27.90;60.10;;;;;;5062646;28;20038;-48
2022/10/11 09:48:03;;;;;;;10.27;2.72;;;28.00;60.60;;;;;;5080684;28;20024;-48
2022/10/11 09:50:30;;;;;;;8.45;2.90;;;27.50;58.50;;;;;;5089029;28;20088;-48
2022/10/11 09:52:58;;;;;;;12.05;2.90;;;27.70;60.20;;;;;;5059957;28;20029;-49
2022/10/11 09:55:33;;;;;;;10.07;3.13;;;27.60;59.90;;;;;;5058263;28;20025;-49
2022/10/11 09:57:59;;;;;;;15.13;3.30;;;27.80;58.80;;;;;;5058881;28;20458;-49
2022/10/11 10:00:27;;;;;;;10.38;3.03;;;26.40;58.80;;;;;;5058376;28;20119;-48
2022/10/11 10:02:55;;;;;;;9.52;2.67;;;26.00;60.60;;;;;;5057322;28;20009;-48
2022/10/11 10:05:26;;;;;;;7.53;3.08;;;26.70;60.80;;;;;;5058305;28;20376;-48
2022/10/11 10:08:10;;;;;;;9.02;2.58;;;27.30;58.70;;;;;;5058934;28;20028;-48
2022/10/11 10:10:48;;;;;;;9.82;2.80;;;27.70;59.10;;;;;;5057600;28;20027;-48
2022/10/11 10:13:38;;;;;;;7.82;2.78;;;27.90;59.40;;;;;;5056508;28;20077;-48
2022/10/11 10:16:04;;;;;;;10.15;2.75;;;28.50;57.40;;;;;;5061271;28;20076;-49
2022/10/11 10:18:40;;;;;;;10.40;2.90;;;28.80;56.60;;;;;;5061269;28;20497;-49
2022/10/11 10:21:09;;;;;;;9.70;2.65;;;28.30;57.20;;;;;;5054419;28;20090;-49
2022/10/11 10:23:36;;;;;;;11.95;3.00;;;28.40;56.50;;;;;;5057700;28;20443;-49
2022/10/11 10:26:13;;;;;;;8.55;2.80;;;27.80;55.80;;;;;;5057155;28;20055;-48
2022/10/11 10:29:00;;;;;;;12.27;2.95;;;27.10;55.00;;;;;;5058393;28;20096;-48
2022/10/11 10:31:47;;;;;;;7.55;2.33;;;26.80;55.80;;;;;;5058549;28;20028;-48
2022/10/11 10:34:34;;;;;;;11.20;2.70;;;26.40;57.10;;;;;;5057078;28;20025;-49
2022/10/11 10:37:07;;;;;;;11.52;2.40;;;26.90;57.20;;;;;;5066684;28;20085;-52
2022/10/11 10:39:49;;;;;;;9.05;2.58;;;26.00;57.60;;;;;;5081466;28;20047;-49
2022/10/11 10:42:17;;;;;;;12.10;3.05;;;25.50;59.40;;;;;;5087299;28;20026;-49
2022/10/11 10:44:46;;;;;;;12.25;2.92;;;24.90;61.30;;;;;;5087735;28;20039;-51
2022/10/11 10:47:45;;;;;;;8.27;2.13;;;24.90;59.60;;;;;;5085805;28;20021;-49
2022/10/11 10:50:46;;;;;;;9.57;2.58;;;24.70;61.40;;;;;;5058086;28;20080;-49
2022/10/11 10:53:36;;;;;;;6.85;2.38;;;24.50;61.10;;;;;;5056990;28;20032;-49
2022/10/11 10:56:18;;;;;;;7.88;3.00;;;25.20;59.50;;;;;;5047970;28;20028;-52
2022/10/11 10:58:49;;;;;;;10.15;2.55;;;25.20;59.10;;;;;;5048363;28;20022;-48
2022/10/11 11:01:27;;;;;;;12.40;2.70;;;26.50;59.70;;;;;;5048399;28;20079;-51
2022/10/11 11:04:08;;;;;;;8.32;2.75;;;27.00;57.40;;;;;;5047885;28;20036;-49
2022/10/11 11:06:52;;;;;;;14.73;7.25;;;26.60;57.70;;;;;;5057597;28;20103;-49
2022/10/11 11:09:39;;;;;;;6.32;2.15;;;25.30;57.20;;;;;;5073223;28;20089;-50
2022/10/11 11:12:43;;;;;;;7.15;2.40;;;26.00;60.60;;;;;;5047101;28;20068;-51
2022/10/11 11:15:28;;;;;;;6.22;2.53;;;26.30;57.40;;;;;;5047287;28;20052;-52
2022/10/11 11:18:27;;;;;;;6.78;2.17;;;26.20;60.10;;;;;;5047455;28;20021;-49
2022/10/11 11:21:17;;;;;;;10.30;2.55;;;26.20;58.10;;;;;;5045021;28;20029;-51
2022/10/11 11:24:15;;;;;;;12.32;2.38;;;26.70;56.20;;;;;;5047034;28;20132;-51
2022/10/11 11:27:08;;;;;;;6.95;2.45;;;26.10;56.50;;;;;;5046224;28;20025;-50
2022/10/11 11:30:05;;;;;;;8.55;2.58;;;24.80;58.20;;;;;;5047745;28;20039;-48
2022/10/11 11:32:47;;;;;;;12.77;3.28;;;23.50;60.40;;;;;;5047115;28;20444;-52
2022/10/11 11:35:38;;;;;;;8.00;3.33;;;23.20;61.30;;;;;;5050832;28;20083;-51
2022/10/11 11:38:17;;;;;;;8.60;2.90;;;22.60;63.20;;;;;;5076369;28;20539;-52
2022/10/11 11:40:50;;;;;;;10.68;3.85;;;23.20;62.50;;;;;;5091464;28;20052;-51
2022/10/11 11:43:52;;;;;;;7.60;2.83;;;23.80;62.50;;;;;;5090570;28;20067;-49
2022/10/11 11:46:23;;;;;;;9.52;2.55;;;24.00;61.10;;;;;;5078668;28;20496;-49
2022/10/11 11:48:52;;;;;;;11.00;2.90;;;24.10;60.80;;;;;;5069349;28;20110;-52
2022/10/11 11:51:27;;;;;;;5.38;2.00;;;23.60;63.00;;;;;;5081265;28;20035;-51
2022/10/11 11:54:11;;;;;;;6.15;2.35;;;22.80;64.00;;;;;;5091706;28;20109;-51
2022/10/11 11:57:04;;;;;;;9.10;2.85;;;23.10;64.80;;;;;;5089374;28;20020;-50
2022/10/11 11:59:36;;;;;;;13.00;2.90;;;23.20;64.50;;;;;;5076741;28;20021;-52
2022/10/11 12:02:17;;;;;;;7.00;2.72;;;23.20;63.90;;;;;;5068702;28;20079;-50
2022/10/11 12:04:47;;;;;;;8.77;2.78;;;23.40;64.50;;;;;;5071169;28;20115;-51
2022/10/11 12:07:19;;;;;;;13.87;3.30;;;23.30;63.10;;;;;;5063479;28;20021;-52
2022/10/11 12:09:50;;;;;;;15.13;4.72;;;23.20;64.20;;;;;;5077255;28;20382;-52
2022/10/11 12:12:35;;;;;;;29.77;18.67;;;22.80;63.50;;;;;;5072001;28;20033;-49
2022/10/11 12:15:03;;;;;;;10.70;3.13;;;22.40;62.80;;;;;;5071777;28;20024;-49
2022/10/11 12:17:28;;;;;;;12.25;3.10;;;21.70;63.50;;;;;;5074319;28;20028;-50
2022/10/11 12:20:23;;;;;;;9.00;2.60;;;20.60;65.70;;;;;;5062373;28;20028;-49
2022/10/11 12:22:52;;;;;;;11.93;2.25;;;19.70;69.10;;;;;;5058170;28;20028;-49
2022/10/11 12:25:20;;;;;;;7.25;2.40;;;19.20;71.30;;;;;;5051797;28;20036;-53
2022/10/11 12:27:49;;;;;;;13.88;2.88;;;18.70;73.10;;;;;;5051746;28;20056;-48
2022/10/11 12:30:43;;;;;;;9.80;3.03;;;18.90;73.20;;;;;;5051673;28;20470;-51
2022/10/11 12:33:15;;;;;;;13.60;2.90;;;19.00;73.10;;;;;;5051649;28;20088;-51
2022/10/11 12:36:13;;;;;;;12.50;3.53;;;18.90;73.70;;;;;;5055325;28;20025;-48
2022/10/11 12:38:39;;;;;;;11.27;3.08;;;19.30;72.60;;;;;;5072909;28;20047;-48
2022/10/11 12:41:13;;;;;;;11.82;2.58;;;19.50;72.80;;;;;;5071241;28;20525;-49
2022/10/11 12:43:47;;;;;;;9.80;2.80;;;19.60;72.30;;;;;;5070281;28;20548;-48
2022/10/11 12:46:42;;;;;;;7.88;2.40;;;19.50;71.60;;;;;;5071065;28;20042;-49
2022/10/11 12:49:40;;;;;;;8.77;2.70;;;19.40;72.80;;;;;;5048594;28;20352;-51
2022/10/11 12:52:15;;;;;;;10.80;2.90;;;19.30;71.30;;;;;;5070973;28;20024;-48
2022/10/11 12:55:08;;;;;;;13.48;3.20;;;18.90;73.20;;;;;;5070958;28;20033;-48
2022/10/11 12:58:11;;;;;;;8.57;2.20;;;18.80;71.60;;;;;;5071188;28;20048;-48
2022/10/11 13:00:39;;;;;;;11.50;2.58;;;18.60;74.00;;;;;;5070783;28;20099;-49
2022/10/11 13:03:25;;;;;;;9.73;2.88;;;18.40;77.20;;;;;;5070337;28;20048;-51
2022/10/11 13:05:55;;;;;;;13.05;3.35;;;18.40;73.10;;;;;;5069248;28;20229;-48
2022/10/11 13:08:29;;;;;;;13.45;2.50;;;18.40;75.40;;;;;;5081103;28;20107;-49
2022/10/11 13:10:58;;;;;;;12.35;2.65;;;18.50;75.70;;;;;;5089289;28;20373;-49